sensor_id;sensor_type;location;lat;lon;timestamp;temperature;humidity
48515;DHT22;34309;47.260;2.796;2023-02-11T00:02:21;22.80;11.00
48515;DHT22;34309;47.260;2.796;2023-02-11T00:04:59;22.70;11.00
48515;DHT22;34309;47.260;2.796;2023-02-11T00:07:34;22.70;11.10
48515;DHT22;34309;47.260;2.796;2023-02-11T00:10:09;22.80;11.10
48515;DHT22;34309;47.260;2.796;2023-02-11T00:12:43;22.70;11.00
48515;DHT22;34309;47.260;2.796;2023-02-11T00:15:17;22.70;11.00
48515;DHT22;34309;47.260;2.796;2023-02-11T00:17:52;22.80;11.00
48515;DHT22;34309;47.260;2.796;2023-02-11T00:20:25;22.80;11.10
48515;DHT22;34309;47.260;2.796;2023-02-11T00:22:59;22.80;11.00
48515;DHT22;34309;47.260;2.796;2023-02-11T00:25:38;22.80;11.00
48515;DHT22;34309;47.260;2.796;2023-02-11T00:28:12;22.80;11.00
48515;DHT22;34309;47.260;2.796;2023-02-11T00:30:53;22.80;11.10
48515;DHT22;34309;47.260;2.796;2023-02-11T00:33:27;22.80;11.10
48515;DHT22;34309;47.260;2.796;2023-02-11T00:36:03;22.80;11.00
48515;DHT22;34309;47.260;2.796;2023-02-11T00:38:37;22.80;10.90
48515;DHT22;34309;47.260;2.796;2023-02-11T00:41:13;22.80;11.00
48515;DHT22;34309;47.260;2.796;2023-02-11T00:43:47;22.80;10.90
48515;DHT22;34309;47.260;2.796;2023-02-11T00:46:21;22.90;11.10
48515;DHT22;34309;47.260;2.796;2023-02-11T00:48:55;22.90;11.00
48515;DHT22;34309;47.260;2.796;2023-02-11T00:51:29;22.90;11.00
48515;DHT22;34309;47.260;2.796;2023-02-11T00:54:03;22.90;10.90
48515;DHT22;34309;47.260;2.796;2023-02-11T00:56:38;22.90;10.90
48515;DHT22;34309;47.260;2.796;2023-02-11T00:59:12;22.90;11.00
48515;DHT22;34309;47.260;2.796;2023-02-11T01:01:46;22.90;10.90
48515;DHT22;34309;47.260;2.796;2023-02-11T01:04:20;22.90;10.70
48515;DHT22;34309;47.260;2.796;2023-02-11T01:06:53;22.90;10.80
48515;DHT22;34309;47.260;2.796;2023-02-11T01:09:27;22.90;10.70
48515;DHT22;34309;47.260;2.796;2023-02-11T01:12:02;22.90;10.60
48515;DHT22;34309;47.260;2.796;2023-02-11T01:14:36;22.90;10.60
48515;DHT22;34309;47.260;2.796;2023-02-11T01:17:10;22.80;10.50
48515;DHT22;34309;47.260;2.796;2023-02-11T01:19:44;22.80;10.50
48515;DHT22;34309;47.260;2.796;2023-02-11T01:22:17;22.80;10.60
48515;DHT22;34309;47.260;2.796;2023-02-11T01:24:51;22.80;10.60
48515;DHT22;34309;47.260;2.796;2023-02-11T01:27:26;22.70;10.50
48515;DHT22;34309;47.260;2.796;2023-02-11T01:30:00;22.70;10.60
48515;DHT22;34309;47.260;2.796;2023-02-11T01:32:34;22.60;10.70
48515;DHT22;34309;47.260;2.796;2023-02-11T01:35:08;22.60;10.60
48515;DHT22;34309;47.260;2.796;2023-02-11T01:37:42;22.50;10.60
48515;DHT22;34309;47.260;2.796;2023-02-11T01:40:16;22.50;10.90
48515;DHT22;34309;47.260;2.796;2023-02-11T01:42:51;22.40;10.80
48515;DHT22;34309;47.260;2.796;2023-02-11T01:46:00;22.40;10.80
48515;DHT22;34309;47.260;2.796;2023-02-11T01:48:36;22.40;11.00
48515;DHT22;34309;47.260;2.796;2023-02-11T01:51:14;22.40;10.90
48515;DHT22;34309;47.260;2.796;2023-02-11T01:53:49;22.50;10.90
48515;DHT22;34309;47.260;2.796;2023-02-11T01:56:45;22.40;10.90
48515;DHT22;34309;47.260;2.796;2023-02-11T01:59:44;22.40;10.80
48515;DHT22;34309;47.260;2.796;2023-02-11T02:02:22;22.50;11.00
48515;DHT22;34309;47.260;2.796;2023-02-11T02:05:04;22.50;10.90
48515;DHT22;34309;47.260;2.796;2023-02-11T02:07:44;22.50;10.90
48515;DHT22;34309;47.260;2.796;2023-02-11T02:10:24;22.50;10.90
48515;DHT22;34309;47.260;2.796;2023-02-11T02:12:58;22.50;10.90
48515;DHT22;34309;47.260;2.796;2023-02-11T02:15:35;22.50;11.00
48515;DHT22;34309;47.260;2.796;2023-02-11T02:18:19;22.60;10.90
48515;DHT22;34309;47.260;2.796;2023-02-11T02:21:18;22.50;10.80
48515;DHT22;34309;47.260;2.796;2023-02-11T02:24:35;22.50;10.70
48515;DHT22;34309;47.260;2.796;2023-02-11T02:27:32;22.50;10.90
48515;DHT22;34309;47.260;2.796;2023-02-11T02:30:43;22.60;10.80
48515;DHT22;34309;47.260;2.796;2023-02-11T02:33:32;22.60;10.90
48515;DHT22;34309;47.260;2.796;2023-02-11T02:36:13;22.60;10.80
48515;DHT22;34309;47.260;2.796;2023-02-11T02:38:53;22.60;10.70
48515;DHT22;34309;47.260;2.796;2023-02-11T02:41:29;22.60;10.60
48515;DHT22;34309;47.260;2.796;2023-02-11T02:44:05;22.60;10.70
48515;DHT22;34309;47.260;2.796;2023-02-11T02:46:40;22.60;10.60
48515;DHT22;34309;47.260;2.796;2023-02-11T02:49:16;22.60;10.60
48515;DHT22;34309;47.260;2.796;2023-02-11T02:52:06;22.60;10.60
48515;DHT22;34309;47.260;2.796;2023-02-11T02:55:02;22.60;10.60
48515;DHT22;34309;47.260;2.796;2023-02-11T02:57:53;22.50;10.60
48515;DHT22;34309;47.260;2.796;2023-02-11T03:00:32;22.50;10.50
48515;DHT22;34309;47.260;2.796;2023-02-11T03:03:16;22.50;10.40
48515;DHT22;34309;47.260;2.796;2023-02-11T03:05:59;22.40;10.40
48515;DHT22;34309;47.260;2.796;2023-02-11T03:08:37;22.30;10.40
48515;DHT22;34309;47.260;2.796;2023-02-11T03:11:15;22.30;10.50
48515;DHT22;34309;47.260;2.796;2023-02-11T03:13:50;22.20;10.70
48515;DHT22;34309;47.260;2.796;2023-02-11T03:16:26;22.30;10.80
48515;DHT22;34309;47.260;2.796;2023-02-11T03:19:03;22.20;10.70
48515;DHT22;34309;47.260;2.796;2023-02-11T03:21:41;22.30;10.80
48515;DHT22;34309;47.260;2.796;2023-02-11T03:24:19;22.20;10.70
48515;DHT22;34309;47.260;2.796;2023-02-11T03:26:57;22.20;10.80
48515;DHT22;34309;47.260;2.796;2023-02-11T03:29:35;22.30;10.70
48515;DHT22;34309;47.260;2.796;2023-02-11T03:32:13;22.30;10.80
48515;DHT22;34309;47.260;2.796;2023-02-11T03:34:48;22.30;10.70
48515;DHT22;34309;47.260;2.796;2023-02-11T03:37:29;22.30;10.70
48515;DHT22;34309;47.260;2.796;2023-02-11T03:40:07;22.30;10.70
48515;DHT22;34309;47.260;2.796;2023-02-11T03:42:44;22.30;10.70
48515;DHT22;34309;47.260;2.796;2023-02-11T03:45:20;22.30;10.60
48515;DHT22;34309;47.260;2.796;2023-02-11T03:47:57;22.40;10.80
48515;DHT22;34309;47.260;2.796;2023-02-11T03:50:33;22.40;10.70
48515;DHT22;34309;47.260;2.796;2023-02-11T03:53:11;22.30;10.50
48515;DHT22;34309;47.260;2.796;2023-02-11T03:55:46;22.30;10.50
48515;DHT22;34309;47.260;2.796;2023-02-11T03:58:21;22.40;10.70
48515;DHT22;34309;47.260;2.796;2023-02-11T04:00:50;22.40;10.60
48515;DHT22;34309;47.260;2.796;2023-02-11T04:03:25;22.40;10.60
48515;DHT22;34309;47.260;2.796;2023-02-11T04:05:59;22.40;10.70
48515;DHT22;34309;47.260;2.796;2023-02-11T04:08:34;22.40;10.60
48515;DHT22;34309;47.260;2.796;2023-02-11T04:11:08;22.40;10.50
48515;DHT22;34309;47.260;2.796;2023-02-11T04:13:42;22.40;10.60
48515;DHT22;34309;47.260;2.796;2023-02-11T04:16:15;22.40;10.50
48515;DHT22;34309;47.260;2.796;2023-02-11T04:18:49;22.40;10.50
48515;DHT22;34309;47.260;2.796;2023-02-11T04:21:23;22.40;10.60
48515;DHT22;34309;47.260;2.796;2023-02-11T04:23:58;22.30;10.50
48515;DHT22;34309;47.260;2.796;2023-02-11T04:26:32;22.30;10.50
48515;DHT22;34309;47.260;2.796;2023-02-11T04:29:06;22.20;10.30
48515;DHT22;34309;47.260;2.796;2023-02-11T04:31:39;22.20;10.40
48515;DHT22;34309;47.260;2.796;2023-02-11T04:34:13;22.10;10.30
48515;DHT22;34309;47.260;2.796;2023-02-11T04:36:49;22.10;10.40
48515;DHT22;34309;47.260;2.796;2023-02-11T04:39:24;22.10;10.40
48515;DHT22;34309;47.260;2.796;2023-02-11T04:41:58;22.00;10.40
48515;DHT22;34309;47.260;2.796;2023-02-11T04:44:32;22.00;10.50
48515;DHT22;34309;47.260;2.796;2023-02-11T04:47:06;21.90;10.60
48515;DHT22;34309;47.260;2.796;2023-02-11T04:49:42;21.90;10.60
48515;DHT22;34309;47.260;2.796;2023-02-11T04:52:16;21.90;10.60
48515;DHT22;34309;47.260;2.796;2023-02-11T04:54:51;21.90;10.70
48515;DHT22;34309;47.260;2.796;2023-02-11T04:57:24;21.90;10.60
48515;DHT22;34309;47.260;2.796;2023-02-11T04:59:58;21.90;10.60
48515;DHT22;34309;47.260;2.796;2023-02-11T05:02:32;21.90;10.60
48515;DHT22;34309;47.260;2.796;2023-02-11T05:05:06;21.90;10.50
48515;DHT22;34309;47.260;2.796;2023-02-11T05:07:40;22.00;10.50
48515;DHT22;34309;47.260;2.796;2023-02-11T05:10:15;22.00;10.50
48515;DHT22;34309;47.260;2.796;2023-02-11T05:12:49;22.00;10.60
48515;DHT22;34309;47.260;2.796;2023-02-11T05:15:22;22.00;10.60
48515;DHT22;34309;47.260;2.796;2023-02-11T05:17:56;22.00;10.40
48515;DHT22;34309;47.260;2.796;2023-02-11T05:20:40;22.00;10.40
48515;DHT22;34309;47.260;2.796;2023-02-11T05:23:14;22.00;10.40
48515;DHT22;34309;47.260;2.796;2023-02-11T05:25:48;22.00;10.40
48515;DHT22;34309;47.260;2.796;2023-02-11T05:28:21;22.10;10.50
48515;DHT22;34309;47.260;2.796;2023-02-11T05:30:55;22.10;10.40
48515;DHT22;34309;47.260;2.796;2023-02-11T05:33:29;22.10;10.40
48515;DHT22;34309;47.260;2.796;2023-02-11T05:36:07;22.10;10.40
48515;DHT22;34309;47.260;2.796;2023-02-11T05:38:41;22.10;10.30
48515;DHT22;34309;47.260;2.796;2023-02-11T05:41:14;22.10;10.20
48515;DHT22;34309;47.260;2.796;2023-02-11T05:43:48;22.10;10.30
48515;DHT22;34309;47.260;2.796;2023-02-11T05:46:22;22.10;10.40
48515;DHT22;34309;47.260;2.796;2023-02-11T05:48:56;22.10;10.20
48515;DHT22;34309;47.260;2.796;2023-02-11T05:51:31;22.10;10.30
48515;DHT22;34309;47.260;2.796;2023-02-11T05:54:04;22.10;10.40
48515;DHT22;34309;47.260;2.796;2023-02-11T05:56:39;22.10;10.20
48515;DHT22;34309;47.260;2.796;2023-02-11T05:59:13;22.10;10.20
48515;DHT22;34309;47.260;2.796;2023-02-11T06:01:47;22.10;10.20
48515;DHT22;34309;47.260;2.796;2023-02-11T06:04:20;22.10;10.30
48515;DHT22;34309;47.260;2.796;2023-02-11T06:06:55;22.00;10.10
48515;DHT22;34309;47.260;2.796;2023-02-11T06:09:29;22.00;10.10
48515;DHT22;34309;47.260;2.796;2023-02-11T06:12:03;22.00;10.10
48515;DHT22;34309;47.260;2.796;2023-02-11T06:14:37;21.90;10.20
48515;DHT22;34309;47.260;2.796;2023-02-11T06:17:11;21.90;10.20
48515;DHT22;34309;47.260;2.796;2023-02-11T06:19:45;21.80;10.20
48515;DHT22;34309;47.260;2.796;2023-02-11T06:22:20;21.70;10.20
48515;DHT22;34309;47.260;2.796;2023-02-11T06:24:53;21.70;10.20
48515;DHT22;34309;47.260;2.796;2023-02-11T06:27:27;21.70;10.30
48515;DHT22;34309;47.260;2.796;2023-02-11T06:29:56;21.70;10.40
48515;DHT22;34309;47.260;2.796;2023-02-11T06:32:30;21.70;10.30
48515;DHT22;34309;47.260;2.796;2023-02-11T06:35:04;21.70;10.50
48515;DHT22;34309;47.260;2.796;2023-02-11T06:37:39;21.70;11.00
48515;DHT22;34309;47.260;2.796;2023-02-11T06:40:13;21.70;10.40
48515;DHT22;34309;47.260;2.796;2023-02-11T06:42:46;21.70;10.30
48515;DHT22;34309;47.260;2.796;2023-02-11T06:45:20;21.70;10.40
48515;DHT22;34309;47.260;2.796;2023-02-11T06:47:54;21.70;10.40
48515;DHT22;34309;47.260;2.796;2023-02-11T06:50:27;21.80;10.50
48515;DHT22;34309;47.260;2.796;2023-02-11T06:53:03;21.80;10.30
48515;DHT22;34309;47.260;2.796;2023-02-11T06:55:36;21.80;10.40
48515;DHT22;34309;47.260;2.796;2023-02-11T06:58:10;21.80;10.40
48515;DHT22;34309;47.260;2.796;2023-02-11T07:00:44;21.80;10.30
48515;DHT22;34309;47.260;2.796;2023-02-11T07:03:18;21.80;10.90
48515;DHT22;34309;47.260;2.796;2023-02-11T07:05:52;21.80;10.30
48515;DHT22;34309;47.260;2.796;2023-02-11T07:08:27;21.80;10.20
48515;DHT22;34309;47.260;2.796;2023-02-11T07:11:07;21.80;10.30
48515;DHT22;34309;47.260;2.796;2023-02-11T07:13:41;21.90;10.30
48515;DHT22;34309;47.260;2.796;2023-02-11T07:16:16;21.90;10.20
48515;DHT22;34309;47.260;2.796;2023-02-11T07:18:50;21.90;10.50
48515;DHT22;34309;47.260;2.796;2023-02-11T07:21:24;21.90;10.50
48515;DHT22;34309;47.260;2.796;2023-02-11T07:23:59;21.90;10.30
48515;DHT22;34309;47.260;2.796;2023-02-11T07:26:33;21.90;10.40
48515;DHT22;34309;47.260;2.796;2023-02-11T07:29:07;21.90;10.30
48515;DHT22;34309;47.260;2.796;2023-02-11T07:31:41;21.90;10.30
48515;DHT22;34309;47.260;2.796;2023-02-11T07:34:15;22.00;10.20
48515;DHT22;34309;47.260;2.796;2023-02-11T07:36:48;22.00;10.20
48515;DHT22;34309;47.260;2.796;2023-02-11T07:39:24;21.90;10.20
48515;DHT22;34309;47.260;2.796;2023-02-11T07:41:58;22.00;10.30
48515;DHT22;34309;47.260;2.796;2023-02-11T07:44:32;21.90;10.10
48515;DHT22;34309;47.260;2.796;2023-02-11T07:47:08;21.90;10.10
48515;DHT22;34309;47.260;2.796;2023-02-11T07:49:41;21.90;9.90
48515;DHT22;34309;47.260;2.796;2023-02-11T07:52:15;21.80;10.10
48515;DHT22;34309;47.260;2.796;2023-02-11T07:54:50;21.80;10.10
48515;DHT22;34309;47.260;2.796;2023-02-11T07:57:24;21.70;9.90
48515;DHT22;34309;47.260;2.796;2023-02-11T07:59:57;21.70;9.90
48515;DHT22;34309;47.260;2.796;2023-02-11T08:02:31;21.60;10.50
48515;DHT22;34309;47.260;2.796;2023-02-11T08:05:05;21.60;10.00
48515;DHT22;34309;47.260;2.796;2023-02-11T08:07:39;21.50;10.10
48515;DHT22;34309;47.260;2.796;2023-02-11T08:10:09;21.50;10.20
48515;DHT22;34309;47.260;2.796;2023-02-11T08:12:43;21.50;10.30
48515;DHT22;34309;47.260;2.796;2023-02-11T08:15:17;21.50;10.30
48515;DHT22;34309;47.260;2.796;2023-02-11T08:17:50;21.60;10.20
48515;DHT22;34309;47.260;2.796;2023-02-11T08:20:24;21.60;10.20
48515;DHT22;34309;47.260;2.796;2023-02-11T08:22:53;21.60;10.20
48515;DHT22;34309;47.260;2.796;2023-02-11T08:25:28;21.60;10.20
48515;DHT22;34309;47.260;2.796;2023-02-11T08:28:02;21.60;10.20
48515;DHT22;34309;47.260;2.796;2023-02-11T08:30:35;21.60;10.30
48515;DHT22;34309;47.260;2.796;2023-02-11T08:33:09;21.60;10.30
48515;DHT22;34309;47.260;2.796;2023-02-11T08:35:42;21.50;10.20
48515;DHT22;34309;47.260;2.796;2023-02-11T08:38:16;21.50;10.20
48515;DHT22;34309;47.260;2.796;2023-02-11T08:40:51;21.50;10.30
48515;DHT22;34309;47.260;2.796;2023-02-11T08:43:25;21.40;10.50
48515;DHT22;34309;47.260;2.796;2023-02-11T08:45:54;21.40;10.50
48515;DHT22;34309;47.260;2.796;2023-02-11T08:48:28;21.40;10.50
48515;DHT22;34309;47.260;2.796;2023-02-11T08:51:05;21.30;10.50
48515;DHT22;34309;47.260;2.796;2023-02-11T08:53:40;21.30;10.70
48515;DHT22;34309;47.260;2.796;2023-02-11T08:56:16;21.20;10.60
48515;DHT22;34309;47.260;2.796;2023-02-11T08:58:51;21.20;10.70
48515;DHT22;34309;47.260;2.796;2023-02-11T09:01:27;21.20;10.80
48515;DHT22;34309;47.260;2.796;2023-02-11T09:04:02;21.10;10.70
48515;DHT22;34309;47.260;2.796;2023-02-11T09:06:35;21.10;10.90
48515;DHT22;34309;47.260;2.796;2023-02-11T09:09:10;21.00;10.80
48515;DHT22;34309;47.260;2.796;2023-02-11T09:11:46;21.00;10.90
48515;DHT22;34309;47.260;2.796;2023-02-11T09:14:21;20.90;11.00
48515;DHT22;34309;47.260;2.796;2023-02-11T09:16:55;20.90;11.20
48515;DHT22;34309;47.260;2.796;2023-02-11T09:19:28;20.80;11.20
48515;DHT22;34309;47.260;2.796;2023-02-11T09:22:02;20.80;11.20
48515;DHT22;34309;47.260;2.796;2023-02-11T09:24:36;20.70;11.30
48515;DHT22;34309;47.260;2.796;2023-02-11T09:27:11;20.70;11.30
48515;DHT22;34309;47.260;2.796;2023-02-11T09:29:45;20.70;11.40
48515;DHT22;34309;47.260;2.796;2023-02-11T09:32:19;20.60;11.50
48515;DHT22;34309;47.260;2.796;2023-02-11T09:34:52;20.60;11.60
48515;DHT22;34309;47.260;2.796;2023-02-11T09:37:26;20.50;11.50
48515;DHT22;34309;47.260;2.796;2023-02-11T09:39:59;20.50;11.70
48515;DHT22;34309;47.260;2.796;2023-02-11T09:42:42;20.40;11.80
48515;DHT22;34309;47.260;2.796;2023-02-11T09:45:19;20.40;11.70
48515;DHT22;34309;47.260;2.796;2023-02-11T09:47:56;20.40;11.70
48515;DHT22;34309;47.260;2.796;2023-02-11T09:50:33;20.30;11.80
48515;DHT22;34309;47.260;2.796;2023-02-11T09:53:10;20.30;11.90
48515;DHT22;34309;47.260;2.796;2023-02-11T09:55:47;20.20;11.90
48515;DHT22;34309;47.260;2.796;2023-02-11T09:58:29;20.20;11.90
48515;DHT22;34309;47.260;2.796;2023-02-11T10:01:07;20.20;11.90
48515;DHT22;34309;47.260;2.796;2023-02-11T10:03:59;20.20;12.00
48515;DHT22;34309;47.260;2.796;2023-02-11T10:06:43;20.10;12.20
48515;DHT22;34309;47.260;2.796;2023-02-11T10:09:33;20.10;12.40
48515;DHT22;34309;47.260;2.796;2023-02-11T10:12:21;20.20;12.40
48515;DHT22;34309;47.260;2.796;2023-02-11T10:15:20;20.40;12.60
48515;DHT22;34309;47.260;2.796;2023-02-11T10:18:18;20.40;12.50
48515;DHT22;34309;47.260;2.796;2023-02-11T10:21:01;20.50;12.70
48515;DHT22;34309;47.260;2.796;2023-02-11T10:23:41;20.40;12.70
48515;DHT22;34309;47.260;2.796;2023-02-11T10:26:18;20.50;12.80
48515;DHT22;34309;47.260;2.796;2023-02-11T10:28:55;20.60;12.90
48515;DHT22;34309;47.260;2.796;2023-02-11T10:31:37;20.70;12.90
48515;DHT22;34309;47.260;2.796;2023-02-11T10:34:14;20.70;12.90
48515;DHT22;34309;47.260;2.796;2023-02-11T10:36:47;20.80;12.90
48515;DHT22;34309;47.260;2.796;2023-02-11T10:39:22;20.80;12.90
48515;DHT22;34309;47.260;2.796;2023-02-11T10:41:59;20.80;13.10
48515;DHT22;34309;47.260;2.796;2023-02-11T10:44:37;20.90;13.00
48515;DHT22;34309;47.260;2.796;2023-02-11T10:47:18;21.00;13.00
48515;DHT22;34309;47.260;2.796;2023-02-11T10:49:53;21.00;12.90
48515;DHT22;34309;47.260;2.796;2023-02-11T10:52:29;21.10;12.90
48515;DHT22;34309;47.260;2.796;2023-02-11T10:55:13;21.10;13.00
48515;DHT22;34309;47.260;2.796;2023-02-11T10:57:55;21.10;13.10
48515;DHT22;34309;47.260;2.796;2023-02-11T11:00:34;21.10;13.00
48515;DHT22;34309;47.260;2.796;2023-02-11T11:03:18;21.10;13.00
48515;DHT22;34309;47.260;2.796;2023-02-11T11:05:55;21.10;12.90
48515;DHT22;34309;47.260;2.796;2023-02-11T11:08:41;21.10;13.00
48515;DHT22;34309;47.260;2.796;2023-02-11T11:11:16;21.10;13.00
48515;DHT22;34309;47.260;2.796;2023-02-11T11:13:55;21.00;13.00
48515;DHT22;34309;47.260;2.796;2023-02-11T11:16:31;21.00;13.20
48515;DHT22;34309;47.260;2.796;2023-02-11T11:19:20;20.90;13.20
48515;DHT22;34309;47.260;2.796;2023-02-11T11:21:55;20.80;13.30
48515;DHT22;34309;47.260;2.796;2023-02-11T11:24:32;20.80;13.30
48515;DHT22;34309;47.260;2.796;2023-02-11T11:27:14;20.80;13.40
48515;DHT22;34309;47.260;2.796;2023-02-11T11:29:50;20.80;13.30
48515;DHT22;34309;47.260;2.796;2023-02-11T11:32:27;20.80;13.50
48515;DHT22;34309;47.260;2.796;2023-02-11T11:35:16;20.70;13.50
48515;DHT22;34309;47.260;2.796;2023-02-11T11:37:55;20.70;13.60
48515;DHT22;34309;47.260;2.796;2023-02-11T11:40:31;20.60;13.60
48515;DHT22;34309;47.260;2.796;2023-02-11T11:43:16;20.60;13.70
48515;DHT22;34309;47.260;2.796;2023-02-11T11:45:53;20.60;13.70
48515;DHT22;34309;47.260;2.796;2023-02-11T11:48:31;20.60;13.60
48515;DHT22;34309;47.260;2.796;2023-02-11T11:51:10;20.70;13.60
48515;DHT22;34309;47.260;2.796;2023-02-11T11:53:47;20.60;13.70
48515;DHT22;34309;47.260;2.796;2023-02-11T11:56:25;20.70;13.50
48515;DHT22;34309;47.260;2.796;2023-02-11T11:59:00;20.80;13.50
48515;DHT22;34309;47.260;2.796;2023-02-11T12:01:42;20.80;13.40
48515;DHT22;34309;47.260;2.796;2023-02-11T12:04:24;20.90;13.40
48515;DHT22;34309;47.260;2.796;2023-02-11T12:07:13;20.90;13.30
48515;DHT22;34309;47.260;2.796;2023-02-11T12:10:03;21.00;13.20
48515;DHT22;34309;47.260;2.796;2023-02-11T12:12:52;21.00;13.20
48515;DHT22;34309;47.260;2.796;2023-02-11T12:15:32;21.00;13.20
48515;DHT22;34309;47.260;2.796;2023-02-11T12:18:23;21.10;13.20
48515;DHT22;34309;47.260;2.796;2023-02-11T12:21:13;21.10;13.20
48515;DHT22;34309;47.260;2.796;2023-02-11T12:24:02;21.10;13.30
48515;DHT22;34309;47.260;2.796;2023-02-11T12:26:43;21.10;13.10
48515;DHT22;34309;47.260;2.796;2023-02-11T12:29:24;21.10;13.10
48515;DHT22;34309;47.260;2.796;2023-02-11T12:32:13;21.10;13.10
48515;DHT22;34309;47.260;2.796;2023-02-11T12:35:15;21.10;13.10
48515;DHT22;34309;47.260;2.796;2023-02-11T12:38:15;21.10;13.10
48515;DHT22;34309;47.260;2.796;2023-02-11T12:41:02;21.10;13.20
48515;DHT22;34309;47.260;2.796;2023-02-11T12:43:42;21.00;13.00
48515;DHT22;34309;47.260;2.796;2023-02-11T12:46:35;21.00;13.20
48515;DHT22;34309;47.260;2.796;2023-02-11T12:49:33;21.00;13.40
48515;DHT22;34309;47.260;2.796;2023-02-11T12:52:28;20.90;13.30
48515;DHT22;34309;47.260;2.796;2023-02-11T12:55:08;20.90;13.40
48515;DHT22;34309;47.260;2.796;2023-02-11T12:57:45;20.90;13.30
48515;DHT22;34309;47.260;2.796;2023-02-11T13:00:23;20.80;13.30
48515;DHT22;34309;47.260;2.796;2023-02-11T13:03:02;20.80;13.40
48515;DHT22;34309;47.260;2.796;2023-02-11T13:05:39;20.70;13.60
48515;DHT22;34309;47.260;2.796;2023-02-11T13:08:21;20.70;13.70
48515;DHT22;34309;47.260;2.796;2023-02-11T13:10:59;20.70;13.60
48515;DHT22;34309;47.260;2.796;2023-02-11T13:13:41;20.60;13.50
48515;DHT22;34309;47.260;2.796;2023-02-11T13:16:27;20.60;13.70
48515;DHT22;34309;47.260;2.796;2023-02-11T13:19:09;20.60;13.70
48515;DHT22;34309;47.260;2.796;2023-02-11T13:21:59;20.60;13.80
48515;DHT22;34309;47.260;2.796;2023-02-11T13:24:41;20.50;13.70
48515;DHT22;34309;47.260;2.796;2023-02-11T13:27:27;20.50;13.60
48515;DHT22;34309;47.260;2.796;2023-02-11T13:30:21;20.40;13.50
48515;DHT22;34309;47.260;2.796;2023-02-11T13:33:04;20.40;13.60
48515;DHT22;34309;47.260;2.796;2023-02-11T13:35:39;20.40;13.70
48515;DHT22;34309;47.260;2.796;2023-02-11T13:38:19;20.30;13.70
48515;DHT22;34309;47.260;2.796;2023-02-11T13:41:02;20.40;13.80
48515;DHT22;34309;47.260;2.796;2023-02-11T13:43:37;20.30;14.00
48515;DHT22;34309;47.260;2.796;2023-02-11T13:46:14;20.30;13.90
48515;DHT22;34309;47.260;2.796;2023-02-11T13:48:50;20.30;13.90
48515;DHT22;34309;47.260;2.796;2023-02-11T13:51:36;20.20;13.90
48515;DHT22;34309;47.260;2.796;2023-02-11T13:54:20;20.20;13.90
48515;DHT22;34309;47.260;2.796;2023-02-11T14:00:44;20.20;13.90
48515;DHT22;34309;47.260;2.796;2023-02-11T14:03:31;20.10;13.80
48515;DHT22;34309;47.260;2.796;2023-02-11T14:06:25;20.10;13.80
48515;DHT22;34309;47.260;2.796;2023-02-11T14:09:38;20.00;13.80
48515;DHT22;34309;47.260;2.796;2023-02-11T14:12:24;20.00;13.70
48515;DHT22;34309;47.260;2.796;2023-02-11T14:15:20;19.90;13.70
48515;DHT22;34309;47.260;2.796;2023-02-11T14:17:54;20.00;13.70
48515;DHT22;34309;47.260;2.796;2023-02-11T14:20:35;20.00;13.80
48515;DHT22;34309;47.260;2.796;2023-02-11T14:23:21;19.90;13.80
48515;DHT22;34309;47.260;2.796;2023-02-11T14:29:14;19.90;14.30
48515;DHT22;34309;47.260;2.796;2023-02-11T14:31:56;19.80;14.00
48515;DHT22;34309;47.260;2.796;2023-02-11T14:34:43;19.80;14.20
48515;DHT22;34309;47.260;2.796;2023-02-11T14:37:29;19.80;14.50
48515;DHT22;34309;47.260;2.796;2023-02-11T14:40:15;19.80;14.50
48515;DHT22;34309;47.260;2.796;2023-02-11T14:42:50;19.80;14.60
48515;DHT22;34309;47.260;2.796;2023-02-11T14:45:26;19.70;14.70
48515;DHT22;34309;47.260;2.796;2023-02-11T14:48:05;19.70;14.80
48515;DHT22;34309;47.260;2.796;2023-02-11T14:50:43;19.70;14.90
48515;DHT22;34309;47.260;2.796;2023-02-11T14:53:22;19.70;15.00
48515;DHT22;34309;47.260;2.796;2023-02-11T14:55:56;19.70;14.90
48515;DHT22;34309;47.260;2.796;2023-02-11T14:58:31;19.70;14.90
48515;DHT22;34309;47.260;2.796;2023-02-11T15:01:24;19.60;14.90
48515;DHT22;34309;47.260;2.796;2023-02-11T15:03:59;19.70;15.20
48515;DHT22;34309;47.260;2.796;2023-02-11T15:06:37;19.70;15.10
48515;DHT22;34309;47.260;2.796;2023-02-11T15:09:17;19.80;15.10
48515;DHT22;34309;47.260;2.796;2023-02-11T15:11:56;19.80;15.00
48515;DHT22;34309;47.260;2.796;2023-02-11T15:14:32;19.90;15.20
48515;DHT22;34309;47.260;2.796;2023-02-11T15:17:07;20.00;15.00
48515;DHT22;34309;47.260;2.796;2023-02-11T15:19:45;20.10;14.90
48515;DHT22;34309;47.260;2.796;2023-02-11T15:22:22;20.20;14.80
48515;DHT22;34309;47.260;2.796;2023-02-11T15:25:07;20.30;14.70
48515;DHT22;34309;47.260;2.796;2023-02-11T15:27:44;20.50;14.80
48515;DHT22;34309;47.260;2.796;2023-02-11T15:30:28;20.50;14.50
48515;DHT22;34309;47.260;2.796;2023-02-11T15:33:03;20.60;14.50
48515;DHT22;34309;47.260;2.796;2023-02-11T15:35:38;20.60;14.20
48515;DHT22;34309;47.260;2.796;2023-02-11T15:38:13;20.60;14.40
48515;DHT22;34309;47.260;2.796;2023-02-11T15:40:54;20.60;14.30
48515;DHT22;34309;47.260;2.796;2023-02-11T15:43:41;20.60;14.40
48515;DHT22;34309;47.260;2.796;2023-02-11T15:46:17;20.60;14.50
48515;DHT22;34309;47.260;2.796;2023-02-11T15:48:52;20.60;14.40
48515;DHT22;34309;47.260;2.796;2023-02-11T15:51:28;20.60;14.60
48515;DHT22;34309;47.260;2.796;2023-02-11T15:54:06;20.60;14.50
48515;DHT22;34309;47.260;2.796;2023-02-11T15:56:43;20.60;14.40
48515;DHT22;34309;47.260;2.796;2023-02-11T15:59:21;20.60;14.50
48515;DHT22;34309;47.260;2.796;2023-02-11T16:02:03;20.60;14.50
48515;DHT22;34309;47.260;2.796;2023-02-11T16:04:37;20.50;14.40
48515;DHT22;34309;47.260;2.796;2023-02-11T16:07:39;20.50;14.50
48515;DHT22;34309;47.260;2.796;2023-02-11T16:10:23;20.50;14.50
48515;DHT22;34309;47.260;2.796;2023-02-11T16:13:17;20.50;14.60
48515;DHT22;34309;47.260;2.796;2023-02-11T16:15:53;20.40;14.70
48515;DHT22;34309;47.260;2.796;2023-02-11T16:18:35;20.30;14.90
48515;DHT22;34309;47.260;2.796;2023-02-11T16:21:13;20.30;15.00
48515;DHT22;34309;47.260;2.796;2023-02-11T16:23:50;20.20;15.10
48515;DHT22;34309;47.260;2.796;2023-02-11T16:26:29;20.20;15.00
48515;DHT22;34309;47.260;2.796;2023-02-11T16:29:09;20.20;15.10
48515;DHT22;34309;47.260;2.796;2023-02-11T16:31:45;20.20;15.10
48515;DHT22;34309;47.260;2.796;2023-02-11T16:34:20;20.10;15.10
48515;DHT22;34309;47.260;2.796;2023-02-11T16:36:54;20.10;15.30
48515;DHT22;34309;47.260;2.796;2023-02-11T16:39:28;20.10;15.30
48515;DHT22;34309;47.260;2.796;2023-02-11T16:42:02;20.00;15.30
48515;DHT22;34309;47.260;2.796;2023-02-11T16:44:37;20.00;15.40
48515;DHT22;34309;47.260;2.796;2023-02-11T16:47:16;20.00;15.30